createdAt,value
2019-04-06T00:02:22.830Z,95332.48
2019-04-06T00:04:53.328Z,95330.95
2019-04-06T00:07:23.708Z,95337.63
2019-04-06T00:09:54.250Z,95336.01
2019-04-06T00:12:24.712Z,95332.41
2019-04-06T00:14:55.119Z,95335.33
2019-04-06T00:17:25.583Z,95329.71
2019-04-06T00:19:55.927Z,95328.68
2019-04-06T00:22:26.373Z,95328.68
2019-04-06T00:24:56.722Z,95331.19
2019-04-06T00:27:27.242Z,95332.86
2019-04-06T00:30:00.119Z,95330.56
2019-04-06T00:32:40.273Z,95331.02
2019-04-06T00:35:10.637Z,95322.21
2019-04-06T00:37:41.158Z,95321.09
2019-04-06T00:40:11.569Z,95322.30
2019-04-06T00:42:42.053Z,95326.08
2019-04-06T00:45:12.462Z,95318.22
2019-04-06T00:47:43.022Z,95321.40
2019-04-06T00:50:13.607Z,95320.55
2019-04-06T00:52:44.034Z,95324.27
2019-04-06T00:55:14.491Z,95319.72
2019-04-06T00:57:45.015Z,95326.28
2019-04-06T01:00:15.901Z,95327.03
2019-04-06T01:02:46.430Z,95328.97
2019-04-06T01:05:16.930Z,95331.89
2019-04-06T01:07:47.460Z,95333.78
2019-04-06T01:10:17.929Z,95335.04
2019-04-06T01:12:48.395Z,95328.45
2019-04-06T01:15:18.811Z,95334.59
2019-04-06T01:17:49.332Z,95332.90
2019-04-06T01:20:19.829Z,95331.52
2019-04-06T01:22:50.214Z,95334.28
2019-04-06T01:25:20.624Z,95329.67
2019-04-06T01:27:51.074Z,95331.67
2019-04-06T01:30:21.495Z,95332.36
2019-04-06T01:32:51.802Z,95329.56
2019-04-06T01:35:22.264Z,95329.09
2019-04-06T01:37:52.691Z,95332.13
2019-04-06T01:40:22.995Z,95328.62
2019-04-06T01:42:53.373Z,95322.15
2019-04-06T01:45:23.838Z,95325.56
2019-04-06T01:47:54.463Z,95323.59
2019-04-06T01:50:24.892Z,95316.27
2019-04-06T01:52:55.295Z,95317.89
2019-04-06T01:55:25.719Z,95321.17
2019-04-06T01:57:56.097Z,95319.37
2019-04-06T02:00:26.400Z,95326.30
2019-04-06T02:02:56.917Z,95328.23
2019-04-06T02:05:27.402Z,95326.88
2019-04-06T02:07:57.811Z,95323.31
2019-04-06T02:10:28.270Z,95321.34
2019-04-06T02:12:58.667Z,95324.36
2019-04-06T02:15:29.160Z,95321.20
2019-04-06T02:17:59.618Z,95321.63
2019-04-06T02:20:30.137Z,95323.23
2019-04-06T02:23:00.542Z,95322.25
2019-04-06T02:25:30.969Z,95311.25
2019-04-06T02:28:01.458Z,95312.11
2019-04-06T02:30:35.303Z,95310.44
2019-04-06T02:33:17.328Z,95307.70
2019-04-06T02:36:06.075Z,95316.69
2019-04-06T02:38:51.709Z,95319.83
2019-04-06T02:41:40.940Z,95321.45
2019-04-06T02:44:11.336Z,95317.98
2019-04-06T02:46:41.696Z,95322.52
2019-04-06T02:49:12.031Z,95320.51
2019-04-06T02:51:42.503Z,95313.94
2019-04-06T02:54:13.101Z,95317.08
2019-04-06T02:56:46.712Z,95315.38
2019-04-06T02:59:15.656Z,95314.32
2019-04-06T03:01:46.089Z,95310.62
2019-04-06T03:04:16.506Z,95313.33
2019-04-06T03:06:46.924Z,95311.22
2019-04-06T03:09:17.383Z,95309.55
2019-04-06T03:11:47.800Z,95311.84
2019-04-06T03:14:18.253Z,95317.27
2019-04-06T03:16:48.738Z,95316.50
2019-04-06T03:19:19.123Z,95304.08
2019-04-06T03:21:49.569Z,95315.03
2019-04-06T03:24:19.977Z,95304.11
2019-04-06T03:27:01.038Z,95303.44
2019-04-06T03:29:22.612Z,95305.06
2019-04-06T03:31:53.063Z,95300.73
2019-04-06T03:34:23.548Z,95297.34
2019-04-06T03:36:54.009Z,95300.16
2019-04-06T03:39:24.765Z,95306.63
2019-04-06T03:41:55.178Z,95297.08
2019-04-06T03:44:25.676Z,95302.23
2019-04-06T03:46:56.095Z,95303.80
2019-04-06T03:49:26.588Z,95309.95
2019-04-06T03:51:57.123Z,95311.26
2019-04-06T03:54:27.566Z,95304.32
2019-04-06T03:56:57.925Z,95312.46
2019-04-06T03:59:28.677Z,95312.58
2019-04-06T04:01:59.174Z,95307.74
2019-04-06T04:04:29.874Z,95310.47
2019-04-06T04:07:00.224Z,95308.86
2019-04-06T04:09:30.714Z,95308.75
2019-04-06T04:12:01.188Z,95303.72
2019-04-06T04:14:31.725Z,95304.41
2019-04-06T04:17:02.370Z,95306.63
2019-04-06T04:19:32.811Z,95303.39
2019-04-06T04:22:03.236Z,95307.62
2019-04-06T04:24:33.763Z,95311.84
2019-04-06T04:27:04.191Z,95307.52
2019-04-06T04:29:34.691Z,95307.33
2019-04-06T04:32:05.374Z,95309.34
2019-04-06T04:34:35.794Z,95320.12
2019-04-06T04:37:06.150Z,95320.60
2019-04-06T04:39:36.734Z,95319.77
2019-04-06T04:42:07.329Z,95327.91
2019-04-06T04:44:37.800Z,95325.91
2019-04-06T04:47:08.410Z,95322.66
2019-04-06T04:49:38.741Z,95335.84
2019-04-06T04:52:09.164Z,95331.31
2019-04-06T04:54:39.630Z,95329.20
2019-04-06T04:57:10.067Z,95331.83
2019-04-06T04:59:40.437Z,95330.36
2019-04-06T05:02:10.817Z,95332.80
2019-04-06T05:04:41.260Z,95335.99
2019-04-06T05:07:11.617Z,95332.37
2019-04-06T05:09:41.950Z,95331.97
2019-04-06T05:12:12.419Z,95332.19
2019-04-06T05:15:06.291Z,95339.91
2019-04-06T05:17:36.606Z,95338.22
2019-04-06T05:20:08.335Z,95340.02
2019-04-06T05:22:38.772Z,95343.23
2019-04-06T05:25:09.996Z,95345.06
2019-04-06T05:27:51.227Z,95343.77
2019-04-06T05:30:13.237Z,95344.34
2019-04-06T05:32:43.602Z,95338.81
2019-04-06T05:35:14.042Z,95338.42
2019-04-06T05:37:44.489Z,95339.05
2019-04-06T05:40:15.009Z,95344.47
2019-04-06T05:42:45.479Z,95346.91
2019-04-06T05:45:16.020Z,95347.48
2019-04-06T05:47:46.796Z,95355.37
2019-04-06T05:50:17.262Z,95354.98
2019-04-06T05:52:47.560Z,95353.38
2019-04-06T05:55:17.995Z,95354.50
2019-04-06T05:57:48.597Z,95359.62
2019-04-06T06:00:19.091Z,95359.92
2019-04-06T06:02:49.658Z,95363.55
2019-04-06T06:05:20.093Z,95371.08
2019-04-06T06:07:50.569Z,95372.08
2019-04-06T06:10:21.060Z,95373.61
2019-04-06T06:12:51.538Z,95378.92
2019-04-06T06:15:21.847Z,95384.96
2019-04-06T06:17:52.302Z,95386.96
2019-04-06T06:20:22.784Z,95385.07
2019-04-06T06:22:53.181Z,95383.34
2019-04-06T06:25:23.702Z,95380.12
2019-04-06T06:27:54.160Z,95379.30
2019-04-06T06:30:24.704Z,95380.73
2019-04-06T06:32:55.218Z,95375.30
2019-04-06T06:35:25.578Z,95380.22
2019-04-06T06:37:56.096Z,95385.54
2019-04-06T06:40:26.709Z,95379.91
2019-04-06T06:42:57.267Z,95382.12
2019-04-06T06:45:27.676Z,95379.98
2019-04-06T06:47:58.123Z,95376.38
2019-04-06T06:50:28.711Z,95376.11
2019-04-06T06:52:59.171Z,95384.97
2019-04-06T06:55:29.611Z,95380.30
2019-04-06T06:58:00.233Z,95383.89
2019-04-06T07:00:30.809Z,95378.17
2019-04-06T07:03:01.335Z,95381.44
2019-04-06T07:05:31.688Z,95381.60
2019-04-06T07:08:02.015Z,95382.13
2019-04-06T07:10:32.443Z,95376.98
2019-04-06T07:13:02.928Z,95374.06
2019-04-06T07:15:33.421Z,95372.64
2019-04-06T07:18:03.842Z,95381.09
2019-04-06T07:20:34.299Z,95377.97
2019-04-06T07:23:04.688Z,95373.55
2019-04-06T07:25:35.113Z,95374.83
2019-04-06T07:28:05.614Z,95374.03
2019-04-06T07:30:36.110Z,95376.23
2019-04-06T07:33:06.401Z,95372.09
2019-04-06T07:35:36.839Z,95377.34
2019-04-06T07:38:07.417Z,95383.11
2019-04-06T07:40:37.773Z,95375.86
2019-04-06T07:43:08.153Z,95371.52
2019-04-06T07:45:38.610Z,95370.09
2019-04-06T07:48:09.049Z,95373.87
2019-04-06T07:50:39.538Z,95374.86
2019-04-06T07:53:09.965Z,95369.77
2019-04-06T07:55:40.627Z,95373.47
2019-04-06T07:58:11.056Z,95373.84
2019-04-06T08:00:41.627Z,95374.70
2019-04-06T08:03:12.084Z,95372.09
2019-04-06T08:05:42.523Z,95371.84
2019-04-06T08:08:12.958Z,95374.86
2019-04-06T08:10:43.424Z,95370.12
2019-04-06T08:13:13.756Z,95373.51
2019-04-06T08:15:44.219Z,95366.45
2019-04-06T08:18:14.691Z,95363.88
2019-04-06T08:20:45.161Z,95367.54
2019-04-06T08:23:15.677Z,95363.17
2019-04-06T08:25:46.350Z,95364.97
2019-04-06T08:28:16.761Z,95363.03
2019-04-06T08:30:47.257Z,95361.33
2019-04-06T08:33:17.654Z,95370.31
2019-04-06T08:35:48.200Z,95356.06
2019-04-06T08:38:18.650Z,95362.11
2019-04-06T08:40:49.191Z,95354.98
2019-04-06T08:43:19.929Z,95355.93
2019-04-06T08:45:50.531Z,95356.06
2019-04-06T08:48:20.864Z,95355.88
2019-04-06T08:50:51.437Z,95351.27
2019-04-06T08:53:21.800Z,95346.42
2019-04-06T08:55:52.279Z,95347.12
2019-04-06T08:58:22.575Z,95346.44
2019-04-06T09:00:53.288Z,95342.45
2019-04-06T09:03:23.790Z,95348.11
2019-04-06T09:05:54.093Z,95354.73
2019-04-06T09:08:24.481Z,95352.83
2019-04-06T09:10:54.902Z,95344.33
2019-04-06T09:13:25.363Z,95338.66
2019-04-06T09:15:55.799Z,95338.16
2019-04-06T09:18:28.617Z,95343.35
2019-04-06T09:20:58.400Z,95336.22
2019-04-06T09:23:28.872Z,95333.38
2019-04-06T09:25:59.424Z,95330.99
2019-04-06T09:28:30.053Z,95322.74
2019-04-06T09:31:00.498Z,95324.30
2019-04-06T09:33:30.900Z,95327.27
2019-04-06T09:36:02.490Z,95324.34
2019-04-06T09:38:32.991Z,95322.86
2019-04-06T09:41:03.504Z,95318.33
2019-04-06T09:43:33.981Z,95319.58
2019-04-06T09:46:20.998Z,95317.95
2019-04-06T09:49:13.696Z,95307.84
2019-04-06T09:52:02.190Z,95310.41
2019-04-06T09:54:42.347Z,95302.03
2019-04-06T09:57:30.590Z,95309.88
2019-04-06T10:00:36.068Z,95301.38
2019-04-06T10:03:24.253Z,95296.76
2019-04-06T10:06:11.061Z,95304.42
2019-04-06T10:08:50.152Z,95296.48
2019-04-06T10:11:41.675Z,95300.30
2019-04-06T10:14:33.779Z,95291.51
2019-04-06T10:17:23.159Z,95289.02
2019-04-06T10:20:18.584Z,95290.56
2019-04-06T10:23:06.472Z,95285.04
2019-04-06T10:26:04.899Z,95296.72
2019-04-06T10:29:00.305Z,95288.34
2019-04-06T10:31:39.702Z,95286.61
2019-04-06T10:34:28.109Z,95278.64
2019-04-06T10:37:22.916Z,95280.73
2019-04-06T10:40:12.650Z,95281.92
2019-04-06T10:43:04.676Z,95281.32
2019-04-06T10:45:57.185Z,95279.68
2019-04-06T10:48:49.756Z,95279.89
2019-04-06T10:51:40.683Z,95276.34
2019-04-06T10:54:28.902Z,95268.36
2019-04-06T10:57:13.028Z,95267.27
2019-04-06T11:00:00.682Z,95254.05
2019-04-06T11:02:50.769Z,95252.86
2019-04-06T11:05:40.859Z,95247.20
2019-04-06T11:08:37.308Z,95251.27
2019-04-06T11:11:29.865Z,95250.02
2019-04-06T11:14:18.328Z,95240.31
2019-04-06T11:17:08.503Z,95249.77
2019-04-06T11:19:57.908Z,95241.14
2019-04-06T11:22:49.903Z,95230.56
2019-04-06T11:25:26.568Z,95224.98
2019-04-06T11:28:14.138Z,95215.63
2019-04-06T11:31:02.103Z,95218.66
2019-04-06T11:33:42.600Z,95215.06
2019-04-06T11:36:35.280Z,95204.55
2019-04-06T11:39:27.915Z,95205.95
2019-04-06T11:42:10.326Z,95207.91
2019-04-06T11:44:59.843Z,95199.11
2019-04-06T11:47:48.263Z,95205.86
2019-04-06T11:50:26.849Z,95205.13
2019-04-06T11:53:07.154Z,95210.11
2019-04-06T11:55:53.815Z,95209.67
2019-04-06T11:58:31.746Z,95214.08
2019-04-06T12:01:08.710Z,95207.98
2019-04-06T12:03:47.768Z,95189.64
2019-04-06T12:06:37.188Z,95194.39
2019-04-06T12:09:26.188Z,95199.48
2019-04-06T12:12:14.965Z,95197.60
2019-04-06T12:15:00.538Z,95185.77
2019-04-06T12:17:42.389Z,95190.48
2019-04-06T12:20:30.519Z,95190.84
2019-04-06T12:23:11.284Z,95196.80
2019-04-06T12:25:56.955Z,95201.03
2019-04-06T12:29:04.929Z,95196.51
2019-04-06T12:32:00.410Z,95198.95
2019-04-06T12:34:58.517Z,95192.83
2019-04-06T12:37:44.430Z,95184.81
2019-04-06T12:40:37.919Z,95182.41
2019-04-06T12:43:21.638Z,95170.95
2019-04-06T12:46:11.006Z,95176.94
2019-04-06T12:49:03.212Z,95180.16
2019-04-06T12:51:51.008Z,95180.35
2019-04-06T12:54:34.241Z,95189.79
2019-04-06T12:57:22.319Z,95196.30
2019-04-06T13:00:11.835Z,95191.89
2019-04-06T13:03:03.927Z,95184.78
2019-04-06T13:05:41.463Z,95187.51
2019-04-06T13:08:33.464Z,95193.98
2019-04-06T13:11:25.882Z,95192.53
2019-04-06T13:14:18.075Z,95193.35
2019-04-06T13:17:07.462Z,95192.33
2019-04-06T13:20:02.775Z,95190.08
2019-04-06T13:22:52.018Z,95182.63
2019-04-06T13:25:42.276Z,95180.09
2019-04-06T13:28:22.073Z,95176.91
2019-04-06T13:31:12.101Z,95175.79
2019-04-06T13:33:58.183Z,95173.67
2019-04-06T13:36:46.348Z,95173.41
2019-04-06T13:39:42.060Z,95168.67
2019-04-06T13:42:30.065Z,95166.80
2019-04-06T13:45:19.333Z,95160.16
2019-04-06T13:48:08.925Z,95150.88
2019-04-06T13:50:54.408Z,95157.78
2019-04-06T13:53:34.998Z,95155.13
2019-04-06T13:56:18.937Z,95158.02
2019-04-06T13:59:08.233Z,95157.44
2019-04-06T14:01:44.880Z,95160.69
2019-04-06T14:04:29.453Z,95152.45
2019-04-06T14:07:18.723Z,95144.00
2019-04-06T14:10:11.090Z,95131.25
2019-04-06T14:13:00.540Z,95134.95
2019-04-06T14:15:56.189Z,95139.73
2019-04-06T14:19:00.936Z,95141.21
2019-04-06T14:21:53.305Z,95131.61
2019-04-06T14:24:40.581Z,95127.91
2019-04-06T14:27:17.713Z,95128.13
2019-04-06T14:30:22.596Z,95129.25
2019-04-06T14:33:10.426Z,95119.33
2019-04-06T14:36:09.606Z,95122.03
2019-04-06T14:38:59.011Z,95120.69
2019-04-06T14:41:42.400Z,95117.80
2019-04-06T14:44:47.241Z,95118.35
2019-04-06T14:47:35.060Z,95117.03
2019-04-06T14:50:25.012Z,95123.66
2019-04-06T14:53:12.892Z,95123.16
2019-04-06T14:56:01.192Z,95129.88
2019-04-06T14:58:57.146Z,95126.95
2019-04-06T15:01:52.050Z,95133.08
2019-04-06T15:04:34.794Z,95140.45
2019-04-06T15:07:14.406Z,95135.97
2019-04-06T15:10:06.598Z,95139.42
2019-04-06T15:12:54.546Z,95142.64
2019-04-06T15:15:56.030Z,95143.92
2019-04-06T15:18:51.185Z,95145.11
2019-04-06T15:21:43.773Z,95139.02
2019-04-06T15:24:29.346Z,95137.59
2019-04-06T15:27:08.167Z,95135.55
2019-04-06T15:30:13.239Z,95145.01
2019-04-06T15:33:14.867Z,95138.09
2019-04-06T15:36:10.626Z,95135.63
2019-04-06T15:38:54.219Z,95129.34
2019-04-06T15:41:55.391Z,95136.16
2019-04-06T15:44:36.861Z,95141.64
2019-04-06T15:47:26.394Z,95136.78
2019-04-06T15:50:13.876Z,95136.43
2019-04-06T15:53:03.169Z,95135.56
2019-04-06T15:55:40.932Z,95130.69
2019-04-06T15:58:25.174Z,95132.56
2019-04-06T16:01:22.815Z,95135.20
2019-04-06T16:04:12.088Z,95133.39
2019-04-06T16:07:00.557Z,95131.11
2019-04-06T16:09:49.846Z,95136.01
2019-04-06T16:12:32.308Z,95121.71
2019-04-06T16:15:16.788Z,95122.20
2019-04-06T16:18:05.370Z,95124.16
2019-04-06T16:20:41.180Z,95117.19
2019-04-06T16:23:45.800Z,95126.37
2019-04-06T16:26:35.251Z,95127.61
2019-04-06T16:29:27.987Z,95115.11
2019-04-06T16:32:32.969Z,95120.10
2019-04-06T16:35:16.640Z,95114.82
2019-04-06T16:37:56.168Z,95116.67
2019-04-06T16:40:51.045Z,95110.50
2019-04-06T16:43:38.924Z,95107.98
2019-04-06T16:46:26.862Z,95108.75
2019-04-06T16:49:19.171Z,95117.09
2019-04-06T16:52:07.057Z,95116.98
2019-04-06T16:54:50.677Z,95116.59
2019-04-06T16:57:39.807Z,95108.92
2019-04-06T17:00:25.046Z,95113.22
2019-04-06T17:03:06.702Z,95115.80
2019-04-06T17:06:11.728Z,95122.69
2019-04-06T17:09:04.171Z,95129.46
2019-04-06T17:11:59.432Z,95121.25
2019-04-06T17:14:49.827Z,95127.22
2019-04-06T17:17:35.826Z,95125.55
2019-04-06T17:20:16.127Z,95122.06
2019-04-06T17:23:07.689Z,95121.96
2019-04-06T17:25:53.140Z,95129.29
2019-04-06T17:28:42.470Z,95133.02
2019-04-06T17:31:30.908Z,95137.65
2019-04-06T17:34:13.168Z,95134.91
2019-04-06T17:37:08.698Z,95131.28
2019-04-06T17:39:52.734Z,95139.11
2019-04-06T17:42:29.445Z,95129.23
2019-04-06T17:45:17.053Z,95134.36
2019-04-06T17:48:10.213Z,95138.17
2019-04-06T17:50:51.065Z,95134.80
2019-04-06T17:53:40.471Z,95134.58
2019-04-06T17:56:21.961Z,95136.41
2019-04-06T17:59:02.318Z,95135.90
2019-04-06T18:01:48.801Z,95140.98
2019-04-06T18:04:53.709Z,95146.78
2019-04-06T18:07:42.410Z,95146.56
2019-04-06T18:10:23.587Z,95145.76
2019-04-06T18:13:03.191Z,95143.83
2019-04-06T18:15:33.669Z,95141.45
2019-04-06T18:18:04.450Z,95142.86
2019-04-06T18:20:34.877Z,95138.79
2019-04-06T18:23:05.342Z,95144.23
2019-04-06T18:25:35.763Z,95152.58
2019-04-06T18:28:06.281Z,95162.20
2019-04-06T18:30:36.737Z,95160.09
2019-04-06T18:33:10.611Z,95161.73
2019-04-06T18:35:41.023Z,95159.92
2019-04-06T18:38:29.158Z,95159.34
2019-04-06T18:40:59.574Z,95161.52
2019-04-06T18:43:30.422Z,95164.27
2019-04-06T18:46:01.210Z,95167.13
2019-04-06T18:48:31.670Z,95161.98
2019-04-06T18:51:02.163Z,95161.58
2019-04-06T18:53:33.093Z,95160.19
2019-04-06T18:56:04.081Z,95167.82
2019-04-06T18:58:34.514Z,95172.03
2019-04-06T19:01:05.487Z,95167.98
2019-04-06T19:03:35.967Z,95168.37
2019-04-06T19:06:06.473Z,95172.21
2019-04-06T19:08:36.899Z,95178.31
2019-04-06T19:11:07.392Z,95175.46
2019-04-06T19:13:37.848Z,95183.02
2019-04-06T19:16:08.219Z,95179.73
2019-04-06T19:18:38.687Z,95183.79
2019-04-06T19:21:09.574Z,95185.90
2019-04-06T19:23:40.543Z,95183.66
2019-04-06T19:26:11.013Z,95192.23
2019-04-06T19:28:41.450Z,95189.55
2019-04-06T19:31:11.825Z,95186.77
2019-04-06T19:33:42.449Z,95186.02
2019-04-06T19:36:13.303Z,95189.22
2019-04-06T19:38:43.877Z,95185.75
2019-04-06T19:41:14.316Z,95195.05
2019-04-06T19:43:44.659Z,95192.78
2019-04-06T19:46:15.119Z,95194.69
2019-04-06T19:48:45.881Z,95191.06
2019-04-06T19:51:17.228Z,95185.81
2019-04-06T19:53:48.268Z,95184.43
2019-04-06T19:56:18.760Z,95186.97
2019-04-06T19:58:49.354Z,95180.66
2019-04-06T20:01:20.322Z,95180.12
2019-04-06T20:03:51.106Z,95180.12
2019-04-06T20:06:21.628Z,95184.45
2019-04-06T20:08:52.107Z,95177.96
2019-04-06T20:11:23.430Z,95182.03
2019-04-06T20:13:54.004Z,95181.61
2019-04-06T20:16:24.321Z,95180.00
2019-04-06T20:18:54.815Z,95179.15
2019-04-06T20:21:25.365Z,95173.60
2019-04-06T20:23:56.163Z,95170.52
2019-04-06T20:26:26.732Z,95159.46
2019-04-06T20:28:57.174Z,95157.26
2019-04-06T20:31:27.575Z,95155.31
2019-04-06T20:33:57.969Z,95149.29
2019-04-06T20:36:28.850Z,95145.86
2019-04-06T20:38:59.323Z,95137.02
2019-04-06T20:41:29.956Z,95147.02
2019-04-06T20:44:00.790Z,95146.89
2019-04-06T20:46:31.231Z,95145.58
2019-04-06T20:49:01.828Z,95146.25
2019-04-06T20:51:32.097Z,95145.70
2019-04-06T20:54:02.659Z,95148.48
2019-04-06T20:56:33.082Z,95147.77
2019-04-06T20:59:03.968Z,95154.13
2019-04-06T21:01:34.375Z,95153.33
2019-04-06T21:04:05.339Z,95154.94
2019-04-06T21:06:35.843Z,95152.77
2019-04-06T21:09:12.168Z,95154.89
2019-04-06T21:11:42.584Z,95152.80
2019-04-06T21:14:13.095Z,95158.91
2019-04-06T21:16:43.507Z,95151.33
2019-04-06T21:19:13.864Z,95155.42
2019-04-06T21:21:44.544Z,95150.17
2019-04-06T21:24:15.024Z,95145.95
2019-04-06T21:26:45.501Z,95152.38
2019-04-06T21:29:16.024Z,95152.09
2019-04-06T21:31:46.470Z,95150.78
2019-04-06T21:34:16.950Z,95156.61
2019-04-06T21:36:47.487Z,95155.13
2019-04-06T21:39:17.944Z,95161.98
2019-04-06T21:41:48.688Z,95158.63
2019-04-06T21:44:19.772Z,95153.80
2019-04-06T21:46:50.863Z,95153.51
2019-04-06T21:49:21.689Z,95154.40
2019-04-06T21:51:52.585Z,95153.24
2019-04-06T21:54:23.023Z,95148.87
2019-04-06T21:56:53.751Z,95153.81
2019-04-06T21:59:24.511Z,95154.97
2019-04-06T22:01:55.738Z,95152.14
2019-04-06T22:04:27.441Z,95148.33
2019-04-06T22:06:58.281Z,95150.80
2019-04-06T22:09:28.839Z,95150.95
2019-04-06T22:11:59.272Z,95149.48
2019-04-06T22:14:29.763Z,95144.00
2019-04-06T22:17:00.214Z,95146.11
2019-04-06T22:19:30.725Z,95145.92
2019-04-06T22:22:01.192Z,95139.68
2019-04-06T22:24:31.717Z,95134.95
2019-04-06T22:27:02.095Z,95147.84
2019-04-06T22:29:33.130Z,95137.66
2019-04-06T22:32:04.011Z,95136.50
2019-04-06T22:34:39.703Z,95138.56
2019-04-06T22:37:06.465Z,95134.59
2019-04-06T22:39:37.487Z,95132.06
2019-04-06T22:42:08.032Z,95130.95
2019-04-06T22:44:38.538Z,95126.58
2019-04-06T22:47:09.084Z,95126.92
2019-04-06T22:49:39.735Z,95125.02
2019-04-06T22:52:10.224Z,95122.50
2019-04-06T22:54:40.658Z,95117.81
2019-04-06T22:57:11.337Z,95120.69
2019-04-06T22:59:41.766Z,95125.78
2019-04-06T23:02:12.263Z,95125.31
2019-04-06T23:05:01.557Z,95128.08
2019-04-06T23:07:32.589Z,95128.92
2019-04-06T23:10:02.961Z,95131.23
2019-04-06T23:12:33.777Z,95138.33
2019-04-06T23:15:04.976Z,95135.11
2019-04-06T23:17:35.445Z,95132.20
2019-04-06T23:20:06.614Z,95137.27
2019-04-06T23:22:37.764Z,95130.63
2019-04-06T23:25:08.508Z,95133.20
2019-04-06T23:27:38.964Z,95131.52
2019-04-06T23:30:10.564Z,95130.05
2019-04-06T23:32:41.156Z,95131.34
2019-04-06T23:35:11.726Z,95126.62
2019-04-06T23:37:42.182Z,95132.05
2019-04-06T23:40:12.647Z,95133.56
2019-04-06T23:42:43.163Z,95126.52
2019-04-06T23:45:13.920Z,95124.74
2019-04-06T23:47:44.564Z,95119.34
2019-04-06T23:50:15.026Z,95114.23
2019-04-06T23:52:45.434Z,95114.73
2019-04-06T23:55:16.298Z,95118.98
2019-04-06T23:57:46.784Z,95110.76
